sensor_id;sensor_type;location;lat;lon;timestamp;P1;durP1;ratioP1;P2;durP2;ratioP2
19804;SDS011;10062;51.052;13.756;2022-10-16T00:00:42;23.77;;;15.67;;
19804;SDS011;10062;51.052;13.756;2022-10-16T00:03:15;22.93;;;14.67;;
19804;SDS011;10062;51.052;13.756;2022-10-16T00:05:46;22.30;;;15.30;;
19804;SDS011;10062;51.052;13.756;2022-10-16T00:08:18;25.20;;;15.20;;
19804;SDS011;10062;51.052;13.756;2022-10-16T00:10:50;27.10;;;15.67;;
19804;SDS011;10062;51.052;13.756;2022-10-16T00:13:22;24.23;;;15.90;;
19804;SDS011;10062;51.052;13.756;2022-10-16T00:15:56;22.50;;;15.50;;
19804;SDS011;10062;51.052;13.756;2022-10-16T00:18:29;25.57;;;17.00;;
19804;SDS011;10062;51.052;13.756;2022-10-16T00:21:02;22.67;;;14.87;;
19804;SDS011;10062;51.052;13.756;2022-10-16T00:23:35;24.60;;;15.17;;
19804;SDS011;10062;51.052;13.756;2022-10-16T00:26:08;21.30;;;14.80;;
19804;SDS011;10062;51.052;13.756;2022-10-16T00:28:44;22.37;;;14.80;;
19804;SDS011;10062;51.052;13.756;2022-10-16T00:31:19;21.80;;;14.87;;
19804;SDS011;10062;51.052;13.756;2022-10-16T00:33:52;24.97;;;15.50;;
19804;SDS011;10062;51.052;13.756;2022-10-16T00:36:24;24.70;;;15.03;;
19804;SDS011;10062;51.052;13.756;2022-10-16T00:38:57;22.17;;;14.87;;
19804;SDS011;10062;51.052;13.756;2022-10-16T00:41:30;21.67;;;14.43;;
19804;SDS011;10062;51.052;13.756;2022-10-16T00:44:40;23.67;;;16.20;;
19804;SDS011;10062;51.052;13.756;2022-10-16T00:47:19;21.73;;;14.73;;
19804;SDS011;10062;51.052;13.756;2022-10-16T00:49:57;23.47;;;14.63;;
19804;SDS011;10062;51.052;13.756;2022-10-16T00:52:32;23.43;;;14.00;;
19804;SDS011;10062;51.052;13.756;2022-10-16T00:55:04;22.17;;;14.23;;
19804;SDS011;10062;51.052;13.756;2022-10-16T00:57:38;26.17;;;15.33;;
19804;SDS011;10062;51.052;13.756;2022-10-16T01:00:14;20.50;;;14.20;;
19804;SDS011;10062;51.052;13.756;2022-10-16T01:02:53;20.20;;;14.00;;
19804;SDS011;10062;51.052;13.756;2022-10-16T01:05:26;25.50;;;15.80;;
19804;SDS011;10062;51.052;13.756;2022-10-16T01:08:08;24.90;;;15.67;;
19804;SDS011;10062;51.052;13.756;2022-10-16T01:10:45;21.10;;;14.97;;
19804;SDS011;10062;51.052;13.756;2022-10-16T01:13:24;22.73;;;14.47;;
19804;SDS011;10062;51.052;13.756;2022-10-16T01:15:59;24.77;;;15.67;;
19804;SDS011;10062;51.052;13.756;2022-10-16T01:18:39;22.80;;;14.30;;
19804;SDS011;10062;51.052;13.756;2022-10-16T01:21:16;24.03;;;15.60;;
19804;SDS011;10062;51.052;13.756;2022-10-16T01:23:55;23.00;;;15.30;;
19804;SDS011;10062;51.052;13.756;2022-10-16T01:26:36;23.27;;;15.73;;
19804;SDS011;10062;51.052;13.756;2022-10-16T01:29:18;20.70;;;14.23;;
19804;SDS011;10062;51.052;13.756;2022-10-16T01:31:56;22.53;;;15.07;;
19804;SDS011;10062;51.052;13.756;2022-10-16T01:34:32;27.30;;;15.30;;
19804;SDS011;10062;51.052;13.756;2022-10-16T01:37:09;23.50;;;15.23;;
19804;SDS011;10062;51.052;13.756;2022-10-16T01:39:46;19.27;;;13.70;;
19804;SDS011;10062;51.052;13.756;2022-10-16T01:42:20;23.13;;;16.03;;
19804;SDS011;10062;51.052;13.756;2022-10-16T01:44:56;22.10;;;14.97;;
19804;SDS011;10062;51.052;13.756;2022-10-16T01:47:30;21.77;;;14.57;;
19804;SDS011;10062;51.052;13.756;2022-10-16T01:50:05;21.67;;;13.73;;
19804;SDS011;10062;51.052;13.756;2022-10-16T01:52:39;19.93;;;13.43;;
19804;SDS011;10062;51.052;13.756;2022-10-16T01:55:14;21.10;;;13.97;;
19804;SDS011;10062;51.052;13.756;2022-10-16T01:57:50;21.10;;;14.93;;
19804;SDS011;10062;51.052;13.756;2022-10-16T02:00:26;26.90;;;15.23;;
19804;SDS011;10062;51.052;13.756;2022-10-16T02:02:59;22.20;;;14.90;;
19804;SDS011;10062;51.052;13.756;2022-10-16T02:05:34;19.77;;;14.10;;
19804;SDS011;10062;51.052;13.756;2022-10-16T02:08:11;19.03;;;12.90;;
19804;SDS011;10062;51.052;13.756;2022-10-16T02:10:43;20.97;;;13.83;;
19804;SDS011;10062;51.052;13.756;2022-10-16T02:13:16;22.40;;;15.20;;
19804;SDS011;10062;51.052;13.756;2022-10-16T02:15:54;22.30;;;14.97;;
19804;SDS011;10062;51.052;13.756;2022-10-16T02:18:26;19.87;;;13.40;;
19804;SDS011;10062;51.052;13.756;2022-10-16T02:20:59;20.63;;;14.70;;
19804;SDS011;10062;51.052;13.756;2022-10-16T02:23:35;20.20;;;14.80;;
19804;SDS011;10062;51.052;13.756;2022-10-16T02:26:13;23.10;;;16.17;;
19804;SDS011;10062;51.052;13.756;2022-10-16T02:28:51;21.77;;;14.53;;
19804;SDS011;10062;51.052;13.756;2022-10-16T02:31:28;21.03;;;15.40;;
19804;SDS011;10062;51.052;13.756;2022-10-16T02:34:05;21.83;;;15.77;;
19804;SDS011;10062;51.052;13.756;2022-10-16T02:36:39;24.47;;;16.70;;
19804;SDS011;10062;51.052;13.756;2022-10-16T02:39:12;22.50;;;15.33;;
19804;SDS011;10062;51.052;13.756;2022-10-16T02:41:45;22.57;;;15.97;;
19804;SDS011;10062;51.052;13.756;2022-10-16T02:44:17;22.70;;;15.90;;
19804;SDS011;10062;51.052;13.756;2022-10-16T02:46:50;23.27;;;16.03;;
19804;SDS011;10062;51.052;13.756;2022-10-16T02:49:22;22.80;;;16.37;;
19804;SDS011;10062;51.052;13.756;2022-10-16T02:51:53;22.83;;;15.10;;
19804;SDS011;10062;51.052;13.756;2022-10-16T02:54:25;22.53;;;15.10;;
19804;SDS011;10062;51.052;13.756;2022-10-16T02:56:57;22.70;;;15.53;;
19804;SDS011;10062;51.052;13.756;2022-10-16T02:59:29;22.37;;;15.67;;
19804;SDS011;10062;51.052;13.756;2022-10-16T03:02:02;24.37;;;16.20;;
19804;SDS011;10062;51.052;13.756;2022-10-16T03:04:34;21.97;;;15.73;;
19804;SDS011;10062;51.052;13.756;2022-10-16T03:07:06;25.47;;;16.13;;
19804;SDS011;10062;51.052;13.756;2022-10-16T03:09:37;22.27;;;16.43;;
19804;SDS011;10062;51.052;13.756;2022-10-16T03:12:09;20.93;;;15.50;;
19804;SDS011;10062;51.052;13.756;2022-10-16T03:14:42;21.53;;;15.73;;
19804;SDS011;10062;51.052;13.756;2022-10-16T03:17:15;21.50;;;15.10;;
19804;SDS011;10062;51.052;13.756;2022-10-16T03:19:47;21.50;;;15.20;;
19804;SDS011;10062;51.052;13.756;2022-10-16T03:22:19;23.53;;;15.93;;
19804;SDS011;10062;51.052;13.756;2022-10-16T03:24:51;21.20;;;14.63;;
19804;SDS011;10062;51.052;13.756;2022-10-16T03:27:23;21.53;;;15.47;;
19804;SDS011;10062;51.052;13.756;2022-10-16T03:29:55;23.30;;;16.27;;
19804;SDS011;10062;51.052;13.756;2022-10-16T03:32:28;20.17;;;14.43;;
19804;SDS011;10062;51.052;13.756;2022-10-16T03:35:00;24.17;;;14.83;;
19804;SDS011;10062;51.052;13.756;2022-10-16T03:37:31;20.00;;;13.33;;
19804;SDS011;10062;51.052;13.756;2022-10-16T03:40:04;20.20;;;14.17;;
19804;SDS011;10062;51.052;13.756;2022-10-16T03:42:36;19.23;;;13.83;;
19804;SDS011;10062;51.052;13.756;2022-10-16T03:45:08;20.27;;;14.30;;
19804;SDS011;10062;51.052;13.756;2022-10-16T03:47:42;21.37;;;14.50;;
19804;SDS011;10062;51.052;13.756;2022-10-16T03:50:14;23.37;;;15.20;;
19804;SDS011;10062;51.052;13.756;2022-10-16T03:52:45;18.93;;;14.33;;
19804;SDS011;10062;51.052;13.756;2022-10-16T03:55:17;21.13;;;15.13;;
19804;SDS011;10062;51.052;13.756;2022-10-16T03:57:49;20.63;;;14.40;;
19804;SDS011;10062;51.052;13.756;2022-10-16T04:00:21;24.30;;;15.70;;
19804;SDS011;10062;51.052;13.756;2022-10-16T04:02:54;21.77;;;14.87;;
19804;SDS011;10062;51.052;13.756;2022-10-16T04:05:26;19.97;;;14.80;;
19804;SDS011;10062;51.052;13.756;2022-10-16T04:07:58;20.63;;;14.90;;
19804;SDS011;10062;51.052;13.756;2022-10-16T04:10:29;22.87;;;16.57;;
19804;SDS011;10062;51.052;13.756;2022-10-16T04:13:01;23.50;;;15.83;;
19804;SDS011;10062;51.052;13.756;2022-10-16T04:15:33;22.03;;;15.20;;
19804;SDS011;10062;51.052;13.756;2022-10-16T04:18:06;22.03;;;15.50;;
19804;SDS011;10062;51.052;13.756;2022-10-16T04:20:38;20.57;;;14.50;;
19804;SDS011;10062;51.052;13.756;2022-10-16T04:23:10;24.33;;;16.53;;
19804;SDS011;10062;51.052;13.756;2022-10-16T04:25:42;21.00;;;15.27;;
19804;SDS011;10062;51.052;13.756;2022-10-16T04:28:13;21.87;;;15.20;;
19804;SDS011;10062;51.052;13.756;2022-10-16T04:30:45;23.23;;;17.40;;
19804;SDS011;10062;51.052;13.756;2022-10-16T04:33:18;22.87;;;15.83;;
19804;SDS011;10062;51.052;13.756;2022-10-16T04:35:55;23.33;;;15.50;;
19804;SDS011;10062;51.052;13.756;2022-10-16T04:38:28;21.57;;;15.07;;
19804;SDS011;10062;51.052;13.756;2022-10-16T04:41:00;23.20;;;15.50;;
19804;SDS011;10062;51.052;13.756;2022-10-16T04:43:32;23.47;;;16.97;;
19804;SDS011;10062;51.052;13.756;2022-10-16T04:46:04;23.10;;;16.43;;
19804;SDS011;10062;51.052;13.756;2022-10-16T04:48:37;22.40;;;15.97;;
19804;SDS011;10062;51.052;13.756;2022-10-16T04:51:09;21.90;;;15.60;;
19804;SDS011;10062;51.052;13.756;2022-10-16T04:53:40;22.30;;;16.03;;
19804;SDS011;10062;51.052;13.756;2022-10-16T04:56:12;21.70;;;15.57;;
19804;SDS011;10062;51.052;13.756;2022-10-16T04:58:45;30.23;;;21.93;;
19804;SDS011;10062;51.052;13.756;2022-10-16T05:01:16;21.57;;;16.30;;
19804;SDS011;10062;51.052;13.756;2022-10-16T05:03:49;23.70;;;16.43;;
19804;SDS011;10062;51.052;13.756;2022-10-16T05:06:21;29.37;;;17.23;;
19804;SDS011;10062;51.052;13.756;2022-10-16T05:08:53;21.63;;;15.73;;
19804;SDS011;10062;51.052;13.756;2022-10-16T05:11:25;24.43;;;16.37;;
19804;SDS011;10062;51.052;13.756;2022-10-16T05:13:57;22.67;;;16.47;;
19804;SDS011;10062;51.052;13.756;2022-10-16T05:16:29;24.03;;;14.97;;
19804;SDS011;10062;51.052;13.756;2022-10-16T05:19:03;20.13;;;15.00;;
19804;SDS011;10062;51.052;13.756;2022-10-16T05:21:35;19.13;;;14.10;;
19804;SDS011;10062;51.052;13.756;2022-10-16T05:24:06;19.13;;;14.07;;
19804;SDS011;10062;51.052;13.756;2022-10-16T05:26:39;20.10;;;14.03;;
19804;SDS011;10062;51.052;13.756;2022-10-16T05:29:11;18.70;;;14.67;;
19804;SDS011;10062;51.052;13.756;2022-10-16T05:31:42;21.73;;;15.07;;
19804;SDS011;10062;51.052;13.756;2022-10-16T05:34:15;22.77;;;15.20;;
19804;SDS011;10062;51.052;13.756;2022-10-16T05:36:47;18.13;;;14.23;;
19804;SDS011;10062;51.052;13.756;2022-10-16T05:39:20;18.57;;;14.13;;
19804;SDS011;10062;51.052;13.756;2022-10-16T05:41:52;20.47;;;14.57;;
19804;SDS011;10062;51.052;13.756;2022-10-16T05:44:23;19.73;;;12.90;;
19804;SDS011;10062;51.052;13.756;2022-10-16T05:46:55;19.23;;;15.00;;
19804;SDS011;10062;51.052;13.756;2022-10-16T05:49:28;18.97;;;14.23;;
19804;SDS011;10062;51.052;13.756;2022-10-16T05:52:01;18.27;;;14.77;;
19804;SDS011;10062;51.052;13.756;2022-10-16T05:54:32;20.03;;;14.87;;
19804;SDS011;10062;51.052;13.756;2022-10-16T05:57:04;19.87;;;12.83;;
19804;SDS011;10062;51.052;13.756;2022-10-16T05:59:36;19.07;;;13.43;;
19804;SDS011;10062;51.052;13.756;2022-10-16T06:02:08;19.27;;;14.37;;
19804;SDS011;10062;51.052;13.756;2022-10-16T06:04:45;19.70;;;14.87;;
19804;SDS011;10062;51.052;13.756;2022-10-16T06:07:17;20.33;;;13.97;;
19804;SDS011;10062;51.052;13.756;2022-10-16T06:09:48;19.70;;;13.53;;
19804;SDS011;10062;51.052;13.756;2022-10-16T06:12:20;18.63;;;14.60;;
19804;SDS011;10062;51.052;13.756;2022-10-16T06:14:52;17.33;;;13.00;;
19804;SDS011;10062;51.052;13.756;2022-10-16T06:17:24;16.70;;;13.30;;
19804;SDS011;10062;51.052;13.756;2022-10-16T06:19:57;20.43;;;14.83;;
19804;SDS011;10062;51.052;13.756;2022-10-16T06:22:29;19.13;;;12.90;;
19804;SDS011;10062;51.052;13.756;2022-10-16T06:25:00;20.77;;;13.77;;
19804;SDS011;10062;51.052;13.756;2022-10-16T06:27:32;18.43;;;13.77;;
19804;SDS011;10062;51.052;13.756;2022-10-16T06:30:05;19.30;;;14.37;;
19804;SDS011;10062;51.052;13.756;2022-10-16T06:32:37;27.37;;;14.13;;
19804;SDS011;10062;51.052;13.756;2022-10-16T06:35:10;18.07;;;14.03;;
19804;SDS011;10062;51.052;13.756;2022-10-16T06:37:42;19.33;;;14.57;;
19804;SDS011;10062;51.052;13.756;2022-10-16T06:40:14;19.03;;;15.10;;
19804;SDS011;10062;51.052;13.756;2022-10-16T06:42:46;21.83;;;15.40;;
19804;SDS011;10062;51.052;13.756;2022-10-16T06:45:18;18.60;;;14.60;;
19804;SDS011;10062;51.052;13.756;2022-10-16T06:47:49;21.40;;;14.57;;
19804;SDS011;10062;51.052;13.756;2022-10-16T06:50:22;23.40;;;15.00;;
19804;SDS011;10062;51.052;13.756;2022-10-16T06:52:54;21.90;;;15.50;;
19804;SDS011;10062;51.052;13.756;2022-10-16T06:55:26;21.83;;;15.60;;
19804;SDS011;10062;51.052;13.756;2022-10-16T06:57:58;22.17;;;15.53;;
19804;SDS011;10062;51.052;13.756;2022-10-16T07:00:30;21.27;;;15.97;;
19804;SDS011;10062;51.052;13.756;2022-10-16T07:03:02;20.43;;;15.40;;
19804;SDS011;10062;51.052;13.756;2022-10-16T07:05:38;19.73;;;15.60;;
19804;SDS011;10062;51.052;13.756;2022-10-16T07:08:10;23.43;;;15.67;;
19804;SDS011;10062;51.052;13.756;2022-10-16T07:10:41;20.90;;;15.37;;
19804;SDS011;10062;51.052;13.756;2022-10-16T07:13:13;22.40;;;17.00;;
19804;SDS011;10062;51.052;13.756;2022-10-16T07:15:45;20.60;;;14.93;;
19804;SDS011;10062;51.052;13.756;2022-10-16T07:18:17;20.87;;;15.60;;
19804;SDS011;10062;51.052;13.756;2022-10-16T07:20:50;18.90;;;14.63;;
19804;SDS011;10062;51.052;13.756;2022-10-16T07:23:22;19.80;;;15.83;;
19804;SDS011;10062;51.052;13.756;2022-10-16T07:25:54;23.87;;;18.43;;
19804;SDS011;10062;51.052;13.756;2022-10-16T07:28:26;17.07;;;14.27;;
19804;SDS011;10062;51.052;13.756;2022-10-16T07:31:00;18.77;;;14.43;;
19804;SDS011;10062;51.052;13.756;2022-10-16T07:33:33;24.03;;;15.50;;
19804;SDS011;10062;51.052;13.756;2022-10-16T07:36:07;20.23;;;16.03;;
19804;SDS011;10062;51.052;13.756;2022-10-16T07:38:39;22.63;;;15.60;;
19804;SDS011;10062;51.052;13.756;2022-10-16T07:41:12;18.50;;;13.73;;
19804;SDS011;10062;51.052;13.756;2022-10-16T07:43:46;22.00;;;15.47;;
19804;SDS011;10062;51.052;13.756;2022-10-16T07:46:19;23.73;;;16.93;;
19804;SDS011;10062;51.052;13.756;2022-10-16T07:48:51;18.90;;;14.70;;
19804;SDS011;10062;51.052;13.756;2022-10-16T07:51:25;24.87;;;15.87;;
19804;SDS011;10062;51.052;13.756;2022-10-16T07:53:57;19.60;;;15.87;;
19804;SDS011;10062;51.052;13.756;2022-10-16T07:56:30;22.07;;;15.50;;
19804;SDS011;10062;51.052;13.756;2022-10-16T07:59:03;19.70;;;14.83;;
19804;SDS011;10062;51.052;13.756;2022-10-16T08:01:34;20.37;;;14.93;;
19804;SDS011;10062;51.052;13.756;2022-10-16T08:04:06;18.30;;;15.07;;
19804;SDS011;10062;51.052;13.756;2022-10-16T08:06:40;20.57;;;15.47;;
19804;SDS011;10062;51.052;13.756;2022-10-16T08:09:13;18.50;;;15.10;;
19804;SDS011;10062;51.052;13.756;2022-10-16T08:11:44;19.33;;;14.83;;
19804;SDS011;10062;51.052;13.756;2022-10-16T08:14:16;18.10;;;14.63;;
19804;SDS011;10062;51.052;13.756;2022-10-16T08:16:48;17.23;;;14.17;;
19804;SDS011;10062;51.052;13.756;2022-10-16T08:19:20;16.30;;;14.47;;
19804;SDS011;10062;51.052;13.756;2022-10-16T08:21:53;16.33;;;12.80;;
19804;SDS011;10062;51.052;13.756;2022-10-16T08:24:25;18.43;;;12.83;;
19804;SDS011;10062;51.052;13.756;2022-10-16T08:26:57;17.20;;;13.63;;
19804;SDS011;10062;51.052;13.756;2022-10-16T08:29:29;19.17;;;14.17;;
19804;SDS011;10062;51.052;13.756;2022-10-16T08:32:01;16.40;;;12.80;;
19804;SDS011;10062;51.052;13.756;2022-10-16T08:34:35;16.37;;;13.23;;
19804;SDS011;10062;51.052;13.756;2022-10-16T08:37:08;16.50;;;14.27;;
19804;SDS011;10062;51.052;13.756;2022-10-16T08:39:41;14.47;;;12.27;;
19804;SDS011;10062;51.052;13.756;2022-10-16T08:42:15;19.27;;;12.57;;
19804;SDS011;10062;51.052;13.756;2022-10-16T08:45:12;17.57;;;11.80;;
19804;SDS011;10062;51.052;13.756;2022-10-16T08:47:55;13.53;;;10.73;;
19804;SDS011;10062;51.052;13.756;2022-10-16T08:50:36;11.70;;;9.27;;
19804;SDS011;10062;51.052;13.756;2022-10-16T08:53:13;10.83;;;9.17;;
19804;SDS011;10062;51.052;13.756;2022-10-16T08:55:49;9.67;;;8.67;;
19804;SDS011;10062;51.052;13.756;2022-10-16T08:58:23;12.43;;;8.63;;
19804;SDS011;10062;51.052;13.756;2022-10-16T09:01:00;9.40;;;7.83;;
19804;SDS011;10062;51.052;13.756;2022-10-16T09:03:39;11.93;;;7.87;;
19804;SDS011;10062;51.052;13.756;2022-10-16T09:06:32;9.43;;;7.60;;
19804;SDS011;10062;51.052;13.756;2022-10-16T09:09:21;7.93;;;7.10;;
19804;SDS011;10062;51.052;13.756;2022-10-16T09:12:10;8.27;;;7.23;;
19804;SDS011;10062;51.052;13.756;2022-10-16T09:14:54;7.13;;;6.43;;
19804;SDS011;10062;51.052;13.756;2022-10-16T09:17:36;6.93;;;6.20;;
19804;SDS011;10062;51.052;13.756;2022-10-16T09:20:19;9.07;;;6.30;;
19804;SDS011;10062;51.052;13.756;2022-10-16T09:23:10;12.80;;;11.45;;
19804;SDS011;10062;51.052;13.756;2022-10-16T09:25:47;8.48;;;7.40;;
19804;SDS011;10062;51.052;13.756;2022-10-16T09:28:21;7.82;;;6.32;;
19804;SDS011;10062;51.052;13.756;2022-10-16T09:30:53;7.45;;;6.47;;
19804;SDS011;10062;51.052;13.756;2022-10-16T09:33:25;6.40;;;5.80;;
19804;SDS011;10062;51.052;13.756;2022-10-16T09:36:00;10.13;;;5.22;;
19804;SDS011;10062;51.052;13.756;2022-10-16T09:38:36;9.43;;;6.22;;
19804;SDS011;10062;51.052;13.756;2022-10-16T09:41:16;6.93;;;5.85;;
19804;SDS011;10062;51.052;13.756;2022-10-16T09:43:52;7.40;;;5.38;;
19804;SDS011;10062;51.052;13.756;2022-10-16T09:46:27;5.75;;;5.15;;
19804;SDS011;10062;51.052;13.756;2022-10-16T09:49:00;6.10;;;4.85;;
19804;SDS011;10062;51.052;13.756;2022-10-16T09:51:34;10.77;;;5.57;;
19804;SDS011;10062;51.052;13.756;2022-10-16T09:54:13;6.77;;;5.13;;
19804;SDS011;10062;51.052;13.756;2022-10-16T09:56:48;7.80;;;5.43;;
19804;SDS011;10062;51.052;13.756;2022-10-16T09:59:22;6.27;;;4.93;;
19804;SDS011;10062;51.052;13.756;2022-10-16T10:01:56;5.43;;;4.70;;
19804;SDS011;10062;51.052;13.756;2022-10-16T10:04:37;6.83;;;4.90;;
19804;SDS011;10062;51.052;13.756;2022-10-16T10:07:16;6.13;;;3.78;;
19804;SDS011;10062;51.052;13.756;2022-10-16T10:09:49;5.07;;;4.15;;
19804;SDS011;10062;51.052;13.756;2022-10-16T10:12:23;7.35;;;3.63;;
19804;SDS011;10062;51.052;13.756;2022-10-16T10:14:56;5.82;;;4.18;;
19804;SDS011;10062;51.052;13.756;2022-10-16T10:17:44;6.95;;;3.72;;
19804;SDS011;10062;51.052;13.756;2022-10-16T10:20:25;4.95;;;3.45;;
19804;SDS011;10062;51.052;13.756;2022-10-16T10:22:58;5.03;;;3.10;;
19804;SDS011;10062;51.052;13.756;2022-10-16T10:25:36;4.40;;;3.10;;
19804;SDS011;10062;51.052;13.756;2022-10-16T10:28:20;6.35;;;3.40;;
19804;SDS011;10062;51.052;13.756;2022-10-16T10:31:10;2.75;;;1.50;;
19804;SDS011;10062;51.052;13.756;2022-10-16T10:33:48;2.63;;;1.83;;
19804;SDS011;10062;51.052;13.756;2022-10-16T10:36:27;3.25;;;1.00;;
19804;SDS011;10062;51.052;13.756;2022-10-16T10:39:03;1.05;;;0.70;;
19804;SDS011;10062;51.052;13.756;2022-10-16T10:41:55;4.45;;;1.15;;
19804;SDS011;10062;51.052;13.756;2022-10-16T10:44:40;2.25;;;0.70;;
19804;SDS011;10062;51.052;13.756;2022-10-16T10:47:27;1.40;;;0.70;;
19804;SDS011;10062;51.052;13.756;2022-10-16T10:50:12;0.43;;;0.43;;
19804;SDS011;10062;51.052;13.756;2022-10-16T10:52:53;1.00;;;0.60;;
19804;SDS011;10062;51.052;13.756;2022-10-16T10:55:33;1.35;;;0.60;;
19804;SDS011;10062;51.052;13.756;2022-10-16T10:58:15;2.13;;;0.70;;
19804;SDS011;10062;51.052;13.756;2022-10-16T11:01:08;6.18;;;3.83;;
19804;SDS011;10062;51.052;13.756;2022-10-16T11:03:45;2.22;;;0.68;;
19804;SDS011;10062;51.052;13.756;2022-10-16T11:06:28;0.77;;;0.60;;
19804;SDS011;10062;51.052;13.756;2022-10-16T11:09:07;2.33;;;1.15;;
19804;SDS011;10062;51.052;13.756;2022-10-16T11:11:42;5.85;;;3.38;;
19804;SDS011;10062;51.052;13.756;2022-10-16T11:14:17;1.02;;;0.60;;
19804;SDS011;10062;51.052;13.756;2022-10-16T11:16:54;3.90;;;1.23;;
19804;SDS011;10062;51.052;13.756;2022-10-16T11:19:33;2.58;;;1.00;;
19804;SDS011;10062;51.052;13.756;2022-10-16T11:22:12;3.60;;;0.90;;
19804;SDS011;10062;51.052;13.756;2022-10-16T11:24:48;2.58;;;0.90;;
19804;SDS011;10062;51.052;13.756;2022-10-16T11:27:26;3.90;;;0.85;;
19804;SDS011;10062;51.052;13.756;2022-10-16T11:30:12;0.95;;;0.57;;
19804;SDS011;10062;51.052;13.756;2022-10-16T11:33:02;1.10;;;0.70;;
19804;SDS011;10062;51.052;13.756;2022-10-16T11:35:43;1.20;;;0.65;;
19804;SDS011;10062;51.052;13.756;2022-10-16T11:38:21;1.02;;;0.63;;
19804;SDS011;10062;51.052;13.756;2022-10-16T11:41:00;2.22;;;0.80;;
19804;SDS011;10062;51.052;13.756;2022-10-16T11:43:35;0.88;;;0.57;;
19804;SDS011;10062;51.052;13.756;2022-10-16T11:46:13;1.95;;;1.00;;
19804;SDS011;10062;51.052;13.756;2022-10-16T11:48:51;3.13;;;1.63;;
19804;SDS011;10062;51.052;13.756;2022-10-16T11:51:30;3.78;;;0.90;;
19804;SDS011;10062;51.052;13.756;2022-10-16T11:54:08;1.10;;;0.57;;
19804;SDS011;10062;51.052;13.756;2022-10-16T11:56:52;2.00;;;0.70;;
19804;SDS011;10062;51.052;13.756;2022-10-16T11:59:28;2.75;;;0.70;;
19804;SDS011;10062;51.052;13.756;2022-10-16T12:02:13;2.33;;;0.80;;
19804;SDS011;10062;51.052;13.756;2022-10-16T12:05:02;4.13;;;0.80;;
19804;SDS011;10062;51.052;13.756;2022-10-16T12:07:45;1.52;;;0.90;;
19804;SDS011;10062;51.052;13.756;2022-10-16T12:10:23;2.72;;;0.85;;
19804;SDS011;10062;51.052;13.756;2022-10-16T12:12:57;0.80;;;0.65;;
19804;SDS011;10062;51.052;13.756;2022-10-16T12:15:30;2.45;;;1.10;;
19804;SDS011;10062;51.052;13.756;2022-10-16T12:18:03;1.75;;;0.60;;
19804;SDS011;10062;51.052;13.756;2022-10-16T12:20:36;2.53;;;0.80;;
19804;SDS011;10062;51.052;13.756;2022-10-16T12:23:16;1.30;;;0.70;;
19804;SDS011;10062;51.052;13.756;2022-10-16T12:25:53;2.25;;;0.50;;
19804;SDS011;10062;51.052;13.756;2022-10-16T12:28:27;1.00;;;0.60;;
19804;SDS011;10062;51.052;13.756;2022-10-16T12:31:01;1.83;;;0.85;;
19804;SDS011;10062;51.052;13.756;2022-10-16T12:33:35;4.38;;;1.10;;
19804;SDS011;10062;51.052;13.756;2022-10-16T12:36:10;1.52;;;0.75;;
19804;SDS011;10062;51.052;13.756;2022-10-16T12:38:47;2.03;;;0.55;;
19804;SDS011;10062;51.052;13.756;2022-10-16T12:41:24;0.85;;;0.50;;
19804;SDS011;10062;51.052;13.756;2022-10-16T12:43:58;1.38;;;0.70;;
19804;SDS011;10062;51.052;13.756;2022-10-16T12:46:35;1.77;;;0.60;;
19804;SDS011;10062;51.052;13.756;2022-10-16T12:49:21;1.08;;;0.60;;
19804;SDS011;10062;51.052;13.756;2022-10-16T12:52:01;2.33;;;1.00;;
19804;SDS011;10062;51.052;13.756;2022-10-16T12:54:34;2.05;;;1.00;;
19804;SDS011;10062;51.052;13.756;2022-10-16T12:57:10;1.98;;;1.10;;
19804;SDS011;10062;51.052;13.756;2022-10-16T12:59:54;2.10;;;1.00;;
19804;SDS011;10062;51.052;13.756;2022-10-16T13:02:41;1.55;;;0.65;;
19804;SDS011;10062;51.052;13.756;2022-10-16T13:05:26;1.58;;;0.73;;
19804;SDS011;10062;51.052;13.756;2022-10-16T13:08:24;0.70;;;0.50;;
19804;SDS011;10062;51.052;13.756;2022-10-16T13:11:05;1.23;;;0.80;;
19804;SDS011;10062;51.052;13.756;2022-10-16T13:13:50;2.25;;;0.77;;
19804;SDS011;10062;51.052;13.756;2022-10-16T13:16:41;1.55;;;0.85;;
19804;SDS011;10062;51.052;13.756;2022-10-16T13:19:23;4.57;;;0.80;;
19804;SDS011;10062;51.052;13.756;2022-10-16T13:22:02;2.45;;;0.90;;
19804;SDS011;10062;51.052;13.756;2022-10-16T13:24:51;3.15;;;0.80;;
19804;SDS011;10062;51.052;13.756;2022-10-16T13:27:35;1.10;;;0.60;;
19804;SDS011;10062;51.052;13.756;2022-10-16T13:30:13;7.22;;;4.65;;
19804;SDS011;10062;51.052;13.756;2022-10-16T13:32:49;4.13;;;0.80;;
19804;SDS011;10062;51.052;13.756;2022-10-16T13:35:26;1.73;;;0.95;;
19804;SDS011;10062;51.052;13.756;2022-10-16T13:38:04;5.90;;;2.65;;
19804;SDS011;10062;51.052;13.756;2022-10-16T13:40:50;4.53;;;1.10;;
19804;SDS011;10062;51.052;13.756;2022-10-16T13:43:26;1.35;;;0.70;;
19804;SDS011;10062;51.052;13.756;2022-10-16T13:46:00;6.13;;;0.70;;
19804;SDS011;10062;51.052;13.756;2022-10-16T13:48:33;1.52;;;0.73;;
19804;SDS011;10062;51.052;13.756;2022-10-16T13:51:06;3.47;;;0.60;;
19804;SDS011;10062;51.052;13.756;2022-10-16T13:53:44;1.63;;;0.80;;
19804;SDS011;10062;51.052;13.756;2022-10-16T13:56:20;2.43;;;0.60;;
19804;SDS011;10062;51.052;13.756;2022-10-16T13:59:03;2.33;;;0.70;;
19804;SDS011;10062;51.052;13.756;2022-10-16T14:01:39;4.00;;;0.73;;
19804;SDS011;10062;51.052;13.756;2022-10-16T14:04:12;2.13;;;1.13;;
19804;SDS011;10062;51.052;13.756;2022-10-16T14:06:46;2.33;;;0.80;;
19804;SDS011;10062;51.052;13.756;2022-10-16T14:09:23;3.77;;;0.90;;
19804;SDS011;10062;51.052;13.756;2022-10-16T14:11:59;3.10;;;1.00;;
19804;SDS011;10062;51.052;13.756;2022-10-16T14:14:34;6.77;;;0.80;;
19804;SDS011;10062;51.052;13.756;2022-10-16T14:17:13;1.70;;;0.73;;
19804;SDS011;10062;51.052;13.756;2022-10-16T14:19:45;1.50;;;0.80;;
19804;SDS011;10062;51.052;13.756;2022-10-16T14:22:30;2.50;;;0.80;;
19804;SDS011;10062;51.052;13.756;2022-10-16T14:25:15;13.53;;;6.30;;
19804;SDS011;10062;51.052;13.756;2022-10-16T14:27:58;35.97;;;27.87;;
19804;SDS011;10062;51.052;13.756;2022-10-16T14:30:32;7.97;;;5.50;;
19804;SDS011;10062;51.052;13.756;2022-10-16T14:33:18;2.20;;;1.30;;
19804;SDS011;10062;51.052;13.756;2022-10-16T14:36:00;2.40;;;1.07;;
19804;SDS011;10062;51.052;13.756;2022-10-16T14:38:34;4.03;;;1.00;;
19804;SDS011;10062;51.052;13.756;2022-10-16T14:41:06;4.23;;;0.90;;
19804;SDS011;10062;51.052;13.756;2022-10-16T14:43:40;2.83;;;1.20;;
19804;SDS011;10062;51.052;13.756;2022-10-16T14:46:15;3.63;;;1.00;;
19804;SDS011;10062;51.052;13.756;2022-10-16T14:48:49;4.30;;;1.10;;
19804;SDS011;10062;51.052;13.756;2022-10-16T14:51:21;1.60;;;1.00;;
19804;SDS011;10062;51.052;13.756;2022-10-16T14:53:53;3.47;;;0.90;;
19804;SDS011;10062;51.052;13.756;2022-10-16T14:56:27;1.80;;;0.80;;
19804;SDS011;10062;51.052;13.756;2022-10-16T14:59:03;2.23;;;0.90;;
19804;SDS011;10062;51.052;13.756;2022-10-16T15:01:35;2.60;;;0.93;;
19804;SDS011;10062;51.052;13.756;2022-10-16T15:04:07;4.83;;;0.90;;
19804;SDS011;10062;51.052;13.756;2022-10-16T15:06:40;1.77;;;0.93;;